sensor_id;sensor_type;location;lat;lon;timestamp;temperature;humidity
17986;DHT22;9118;48.122;11.546;2023-03-01T00:00:22;3.30;99.90
17986;DHT22;9118;48.122;11.546;2023-03-01T00:02:49;3.30;99.90
17986;DHT22;9118;48.122;11.546;2023-03-01T00:05:18;4.10;99.90
17986;DHT22;9118;48.122;11.546;2023-03-01T00:07:44;3.40;99.90
17986;DHT22;9118;48.122;11.546;2023-03-01T00:10:12;3.70;99.90
17986;DHT22;9118;48.122;11.546;2023-03-01T00:12:42;3.40;99.90
17986;DHT22;9118;48.122;11.546;2023-03-01T00:15:09;3.40;99.90
17986;DHT22;9118;48.122;11.546;2023-03-01T00:17:37;3.70;99.90
17986;DHT22;9118;48.122;11.546;2023-03-01T00:20:05;3.30;99.90
17986;DHT22;9118;48.122;11.546;2023-03-01T00:22:35;3.30;99.90
17986;DHT22;9118;48.122;11.546;2023-03-01T00:25:02;3.30;99.90
17986;DHT22;9118;48.122;11.546;2023-03-01T00:27:29;3.90;99.90
17986;DHT22;9118;48.122;11.546;2023-03-01T00:29:57;3.30;99.90
17986;DHT22;9118;48.122;11.546;2023-03-01T00:32:24;3.40;99.90
17986;DHT22;9118;48.122;11.546;2023-03-01T00:34:53;3.30;99.90
17986;DHT22;9118;48.122;11.546;2023-03-01T00:37:21;3.30;99.90
17986;DHT22;9118;48.122;11.546;2023-03-01T00:39:50;3.30;99.90
17986;DHT22;9118;48.122;11.546;2023-03-01T00:42:17;3.30;99.90
17986;DHT22;9118;48.122;11.546;2023-03-01T00:44:44;4.90;99.90
17986;DHT22;9118;48.122;11.546;2023-03-01T00:47:14;3.30;99.90
17986;DHT22;9118;48.122;11.546;2023-03-01T00:49:41;4.00;99.90
17986;DHT22;9118;48.122;11.546;2023-03-01T00:52:07;3.30;99.90
17986;DHT22;9118;48.122;11.546;2023-03-01T00:54:34;3.60;99.90
17986;DHT22;9118;48.122;11.546;2023-03-01T00:57:03;3.50;99.90
17986;DHT22;9118;48.122;11.546;2023-03-01T00:59:30;3.30;99.90
17986;DHT22;9118;48.122;11.546;2023-03-01T01:01:57;3.30;99.90
17986;DHT22;9118;48.122;11.546;2023-03-01T01:04:24;3.80;99.90
17986;DHT22;9118;48.122;11.546;2023-03-01T01:06:51;3.60;99.90
17986;DHT22;9118;48.122;11.546;2023-03-01T01:09:18;3.10;99.90
17986;DHT22;9118;48.122;11.546;2023-03-01T01:11:46;3.50;99.90
17986;DHT22;9118;48.122;11.546;2023-03-01T01:14:16;3.20;99.90
17986;DHT22;9118;48.122;11.546;2023-03-01T01:16:43;3.40;99.90
17986;DHT22;9118;48.122;11.546;2023-03-01T01:19:10;3.40;99.90
17986;DHT22;9118;48.122;11.546;2023-03-01T01:21:39;3.20;99.90
17986;DHT22;9118;48.122;11.546;2023-03-01T01:24:07;3.20;99.90
17986;DHT22;9118;48.122;11.546;2023-03-01T01:26:34;3.20;99.90
17986;DHT22;9118;48.122;11.546;2023-03-01T01:29:03;4.10;99.90
17986;DHT22;9118;48.122;11.546;2023-03-01T01:31:33;3.40;99.90
17986;DHT22;9118;48.122;11.546;2023-03-01T01:34:02;3.80;99.90
17986;DHT22;9118;48.122;11.546;2023-03-01T01:36:29;3.70;99.90
17986;DHT22;9118;48.122;11.546;2023-03-01T01:38:56;3.50;99.90
17986;DHT22;9118;48.122;11.546;2023-03-01T01:41:25;3.60;99.90
17986;DHT22;9118;48.122;11.546;2023-03-01T01:44:11;3.60;99.90
17986;DHT22;9118;48.122;11.546;2023-03-01T01:46:41;3.30;99.90
17986;DHT22;9118;48.122;11.546;2023-03-01T01:49:20;3.50;99.90
17986;DHT22;9118;48.122;11.546;2023-03-01T01:51:51;3.30;99.90
17986;DHT22;9118;48.122;11.546;2023-03-01T01:54:21;3.30;99.90
17986;DHT22;9118;48.122;11.546;2023-03-01T01:56:53;3.20;99.90
17986;DHT22;9118;48.122;11.546;2023-03-01T01:59:23;2.90;99.90
17986;DHT22;9118;48.122;11.546;2023-03-01T02:01:52;3.90;99.90
17986;DHT22;9118;48.122;11.546;2023-03-01T02:04:23;3.10;99.90
17986;DHT22;9118;48.122;11.546;2023-03-01T02:06:55;3.30;99.90
17986;DHT22;9118;48.122;11.546;2023-03-01T02:09:25;2.90;99.90
17986;DHT22;9118;48.122;11.546;2023-03-01T02:11:53;3.10;99.90
17986;DHT22;9118;48.122;11.546;2023-03-01T02:14:20;3.10;99.90
17986;DHT22;9118;48.122;11.546;2023-03-01T02:16:48;3.10;99.90
17986;DHT22;9118;48.122;11.546;2023-03-01T02:19:25;3.20;99.90
17986;DHT22;9118;48.122;11.546;2023-03-01T02:22:01;3.10;99.90
17986;DHT22;9118;48.122;11.546;2023-03-01T02:24:39;3.70;99.90
17986;DHT22;9118;48.122;11.546;2023-03-01T02:27:11;3.00;99.90
17986;DHT22;9118;48.122;11.546;2023-03-01T02:29:39;3.40;99.90
17986;DHT22;9118;48.122;11.546;2023-03-01T02:32:10;3.10;99.90
17986;DHT22;9118;48.122;11.546;2023-03-01T02:34:38;3.50;99.90
17986;DHT22;9118;48.122;11.546;2023-03-01T02:37:08;4.50;99.90
17986;DHT22;9118;48.122;11.546;2023-03-01T02:39:40;3.10;99.90
17986;DHT22;9118;48.122;11.546;2023-03-01T02:42:12;3.10;99.90
17986;DHT22;9118;48.122;11.546;2023-03-01T02:44:41;3.10;99.90
17986;DHT22;9118;48.122;11.546;2023-03-01T02:47:10;3.20;99.90
17986;DHT22;9118;48.122;11.546;2023-03-01T02:49:37;3.10;99.90
17986;DHT22;9118;48.122;11.546;2023-03-01T02:52:21;3.10;99.90
17986;DHT22;9118;48.122;11.546;2023-03-01T02:54:52;3.00;99.90
17986;DHT22;9118;48.122;11.546;2023-03-01T02:57:22;3.00;99.90
17986;DHT22;9118;48.122;11.546;2023-03-01T02:59:53;3.70;99.90
17986;DHT22;9118;48.122;11.546;2023-03-01T03:02:24;3.00;99.90
17986;DHT22;9118;48.122;11.546;2023-03-01T03:05:06;3.70;99.90
17986;DHT22;9118;48.122;11.546;2023-03-01T03:07:34;3.60;99.90
17986;DHT22;9118;48.122;11.546;2023-03-01T03:10:02;3.00;99.90
17986;DHT22;9118;48.122;11.546;2023-03-01T03:12:29;3.00;99.90
17986;DHT22;9118;48.122;11.546;2023-03-01T03:15:00;3.00;99.90
17986;DHT22;9118;48.122;11.546;2023-03-01T03:17:34;4.60;99.90
17986;DHT22;9118;48.122;11.546;2023-03-01T03:20:02;2.80;99.90
17986;DHT22;9118;48.122;11.546;2023-03-01T03:22:30;3.30;99.90
17986;DHT22;9118;48.122;11.546;2023-03-01T03:24:59;2.00;99.90
17986;DHT22;9118;48.122;11.546;2023-03-01T03:27:41;2.90;99.90
17986;DHT22;9118;48.122;11.546;2023-03-01T03:30:13;3.40;99.90
17986;DHT22;9118;48.122;11.546;2023-03-01T03:32:42;2.90;99.90
17986;DHT22;9118;48.122;11.546;2023-03-01T03:35:18;3.00;99.90
17986;DHT22;9118;48.122;11.546;2023-03-01T03:37:46;3.00;99.90
17986;DHT22;9118;48.122;11.546;2023-03-01T03:40:33;3.00;99.90
17986;DHT22;9118;48.122;11.546;2023-03-01T03:43:01;3.20;99.90
17986;DHT22;9118;48.122;11.546;2023-03-01T03:45:29;4.00;99.90
17986;DHT22;9118;48.122;11.546;2023-03-01T03:47:59;2.60;99.90
17986;DHT22;9118;48.122;11.546;2023-03-01T03:50:26;3.10;99.90
17986;DHT22;9118;48.122;11.546;2023-03-01T03:52:53;2.90;99.90
17986;DHT22;9118;48.122;11.546;2023-03-01T03:55:20;3.50;99.90
17986;DHT22;9118;48.122;11.546;2023-03-01T03:57:48;4.20;99.90
17986;DHT22;9118;48.122;11.546;2023-03-01T04:00:18;2.90;99.90
17986;DHT22;9118;48.122;11.546;2023-03-01T04:02:47;2.80;99.90
17986;DHT22;9118;48.122;11.546;2023-03-01T04:05:16;2.80;99.90
17986;DHT22;9118;48.122;11.546;2023-03-01T04:07:44;2.80;99.90
17986;DHT22;9118;48.122;11.546;2023-03-01T04:10:13;3.00;99.90
17986;DHT22;9118;48.122;11.546;2023-03-01T04:12:42;2.80;99.90
17986;DHT22;9118;48.122;11.546;2023-03-01T04:15:11;2.80;99.90
17986;DHT22;9118;48.122;11.546;2023-03-01T04:17:42;2.80;99.90
17986;DHT22;9118;48.122;11.546;2023-03-01T04:20:13;3.80;99.90
17986;DHT22;9118;48.122;11.546;2023-03-01T04:22:43;2.80;99.90
17986;DHT22;9118;48.122;11.546;2023-03-01T04:25:12;2.80;99.90
17986;DHT22;9118;48.122;11.546;2023-03-01T04:27:40;2.70;99.90
17986;DHT22;9118;48.122;11.546;2023-03-01T04:30:08;2.70;99.90
17986;DHT22;9118;48.122;11.546;2023-03-01T04:32:37;2.70;99.90
17986;DHT22;9118;48.122;11.546;2023-03-01T04:35:04;3.20;99.90
17986;DHT22;9118;48.122;11.546;2023-03-01T04:37:33;2.60;99.90
17986;DHT22;9118;48.122;11.546;2023-03-01T04:40:00;2.70;99.90
17986;DHT22;9118;48.122;11.546;2023-03-01T04:42:41;3.10;99.90
17986;DHT22;9118;48.122;11.546;2023-03-01T04:45:09;2.80;99.90
17986;DHT22;9118;48.122;11.546;2023-03-01T04:47:39;2.70;99.90
17986;DHT22;9118;48.122;11.546;2023-03-01T04:50:07;3.70;99.90
17986;DHT22;9118;48.122;11.546;2023-03-01T04:52:36;2.70;99.90
17986;DHT22;9118;48.122;11.546;2023-03-01T04:55:05;4.50;99.90
17986;DHT22;9118;48.122;11.546;2023-03-01T04:57:32;2.60;99.90
17986;DHT22;9118;48.122;11.546;2023-03-01T05:00:02;2.60;99.90
17986;DHT22;9118;48.122;11.546;2023-03-01T05:02:46;3.00;99.90
17986;DHT22;9118;48.122;11.546;2023-03-01T05:05:14;2.70;99.90
17986;DHT22;9118;48.122;11.546;2023-03-01T05:07:42;2.60;99.90
17986;DHT22;9118;48.122;11.546;2023-03-01T05:10:10;2.60;99.90
17986;DHT22;9118;48.122;11.546;2023-03-01T05:12:37;2.60;99.90
17986;DHT22;9118;48.122;11.546;2023-03-01T05:15:05;2.90;99.90
17986;DHT22;9118;48.122;11.546;2023-03-01T05:17:32;2.50;99.90
17986;DHT22;9118;48.122;11.546;2023-03-01T05:19:59;3.70;99.90
17986;DHT22;9118;48.122;11.546;2023-03-01T05:22:31;2.80;99.90
17986;DHT22;9118;48.122;11.546;2023-03-01T05:24:59;2.70;99.90
17986;DHT22;9118;48.122;11.546;2023-03-01T05:27:26;2.60;99.90
17986;DHT22;9118;48.122;11.546;2023-03-01T05:29:55;0.60;99.90
17986;DHT22;9118;48.122;11.546;2023-03-01T05:32:22;2.20;99.90
17986;DHT22;9118;48.122;11.546;2023-03-01T05:34:49;2.40;99.90
17986;DHT22;9118;48.122;11.546;2023-03-01T05:37:18;2.80;99.90
17986;DHT22;9118;48.122;11.546;2023-03-01T05:39:45;3.30;99.90
17986;DHT22;9118;48.122;11.546;2023-03-01T05:42:13;2.90;99.90
17986;DHT22;9118;48.122;11.546;2023-03-01T05:44:40;3.20;99.90
17986;DHT22;9118;48.122;11.546;2023-03-01T05:47:07;2.70;99.90
17986;DHT22;9118;48.122;11.546;2023-03-01T05:49:35;3.00;99.90
17986;DHT22;9118;48.122;11.546;2023-03-01T05:52:02;2.80;99.90
17986;DHT22;9118;48.122;11.546;2023-03-01T05:54:29;2.50;99.90
17986;DHT22;9118;48.122;11.546;2023-03-01T05:56:58;3.00;99.90
17986;DHT22;9118;48.122;11.546;2023-03-01T05:59:27;2.30;99.90
17986;DHT22;9118;48.122;11.546;2023-03-01T06:01:54;2.40;99.90
17986;DHT22;9118;48.122;11.546;2023-03-01T06:04:21;2.50;99.90
17986;DHT22;9118;48.122;11.546;2023-03-01T06:06:48;2.60;99.90
17986;DHT22;9118;48.122;11.546;2023-03-01T06:09:15;2.70;99.90
17986;DHT22;9118;48.122;11.546;2023-03-01T06:11:42;2.60;99.90
17986;DHT22;9118;48.122;11.546;2023-03-01T06:14:12;2.40;99.90
17986;DHT22;9118;48.122;11.546;2023-03-01T06:16:41;2.00;99.90
17986;DHT22;9118;48.122;11.546;2023-03-01T06:19:08;2.60;99.90
17986;DHT22;9118;48.122;11.546;2023-03-01T06:21:35;2.30;99.90
17986;DHT22;9118;48.122;11.546;2023-03-01T06:24:03;2.40;99.90
17986;DHT22;9118;48.122;11.546;2023-03-01T06:26:33;2.40;99.90
17986;DHT22;9118;48.122;11.546;2023-03-01T06:29:00;2.30;99.90
17986;DHT22;9118;48.122;11.546;2023-03-01T06:31:27;2.70;99.90
17986;DHT22;9118;48.122;11.546;2023-03-01T06:33:56;2.50;99.90
17986;DHT22;9118;48.122;11.546;2023-03-01T06:36:23;2.40;99.90
17986;DHT22;9118;48.122;11.546;2023-03-01T06:38:50;2.70;99.90
17986;DHT22;9118;48.122;11.546;2023-03-01T06:41:17;3.90;99.90
17986;DHT22;9118;48.122;11.546;2023-03-01T06:43:44;2.70;99.90
17986;DHT22;9118;48.122;11.546;2023-03-01T06:46:11;2.80;99.90
17986;DHT22;9118;48.122;11.546;2023-03-01T06:48:38;3.90;99.90
17986;DHT22;9118;48.122;11.546;2023-03-01T06:51:06;2.40;99.90
17986;DHT22;9118;48.122;11.546;2023-03-01T06:53:34;2.90;99.90
17986;DHT22;9118;48.122;11.546;2023-03-01T06:56:01;2.40;99.90
17986;DHT22;9118;48.122;11.546;2023-03-01T06:58:28;2.60;99.90
17986;DHT22;9118;48.122;11.546;2023-03-01T07:00:55;2.80;99.90
17986;DHT22;9118;48.122;11.546;2023-03-01T07:03:22;2.50;99.90
17986;DHT22;9118;48.122;11.546;2023-03-01T07:05:50;2.50;99.90
17986;DHT22;9118;48.122;11.546;2023-03-01T07:08:19;2.80;99.90
17986;DHT22;9118;48.122;11.546;2023-03-01T07:10:46;3.70;99.90
17986;DHT22;9118;48.122;11.546;2023-03-01T07:13:14;2.90;99.90
17986;DHT22;9118;48.122;11.546;2023-03-01T07:15:41;3.40;99.90
17986;DHT22;9118;48.122;11.546;2023-03-01T07:18:08;3.30;99.90
17986;DHT22;9118;48.122;11.546;2023-03-01T07:20:37;2.80;99.90
17986;DHT22;9118;48.122;11.546;2023-03-01T07:23:05;3.90;99.90
17986;DHT22;9118;48.122;11.546;2023-03-01T07:25:34;2.80;99.90
17986;DHT22;9118;48.122;11.546;2023-03-01T07:28:01;2.80;99.90
17986;DHT22;9118;48.122;11.546;2023-03-01T07:30:28;3.30;99.90
17986;DHT22;9118;48.122;11.546;2023-03-01T07:32:57;2.80;99.90
17986;DHT22;9118;48.122;11.546;2023-03-01T07:35:26;2.90;99.90
17986;DHT22;9118;48.122;11.546;2023-03-01T07:37:54;2.80;99.90
17986;DHT22;9118;48.122;11.546;2023-03-01T07:40:21;3.00;99.90
17986;DHT22;9118;48.122;11.546;2023-03-01T07:42:55;2.90;99.90
17986;DHT22;9118;48.122;11.546;2023-03-01T07:45:22;2.80;99.90
17986;DHT22;9118;48.122;11.546;2023-03-01T07:47:50;3.00;99.90
17986;DHT22;9118;48.122;11.546;2023-03-01T07:50:20;2.70;99.90
17986;DHT22;9118;48.122;11.546;2023-03-01T07:52:49;2.70;99.90
17986;DHT22;9118;48.122;11.546;2023-03-01T07:55:16;2.90;99.90
17986;DHT22;9118;48.122;11.546;2023-03-01T07:57:43;3.50;99.90
17986;DHT22;9118;48.122;11.546;2023-03-01T08:00:13;2.70;99.90
17986;DHT22;9118;48.122;11.546;2023-03-01T08:02:41;2.60;99.90
17986;DHT22;9118;48.122;11.546;2023-03-01T08:05:08;3.10;99.90
17986;DHT22;9118;48.122;11.546;2023-03-01T08:07:35;3.80;99.90
17986;DHT22;9118;48.122;11.546;2023-03-01T08:10:03;3.50;99.90
17986;DHT22;9118;48.122;11.546;2023-03-01T08:12:30;3.10;99.90
17986;DHT22;9118;48.122;11.546;2023-03-01T08:14:57;3.30;99.90
17986;DHT22;9118;48.122;11.546;2023-03-01T08:17:26;4.00;99.90
17986;DHT22;9118;48.122;11.546;2023-03-01T08:19:53;3.90;99.90
17986;DHT22;9118;48.122;11.546;2023-03-01T08:22:20;3.40;99.90
17986;DHT22;9118;48.122;11.546;2023-03-01T08:24:47;3.10;99.90
17986;DHT22;9118;48.122;11.546;2023-03-01T08:27:15;3.00;99.90
17986;DHT22;9118;48.122;11.546;2023-03-01T08:29:42;3.40;99.90
17986;DHT22;9118;48.122;11.546;2023-03-01T08:32:09;3.40;99.90
17986;DHT22;9118;48.122;11.546;2023-03-01T08:34:37;3.50;99.90
17986;DHT22;9118;48.122;11.546;2023-03-01T08:37:04;3.60;99.90
17986;DHT22;9118;48.122;11.546;2023-03-01T08:39:32;5.30;99.90
17986;DHT22;9118;48.122;11.546;2023-03-01T08:41:59;3.70;99.90
17986;DHT22;9118;48.122;11.546;2023-03-01T08:44:26;3.80;99.90
17986;DHT22;9118;48.122;11.546;2023-03-01T08:46:53;3.90;99.90
17986;DHT22;9118;48.122;11.546;2023-03-01T08:49:21;4.00;99.90
17986;DHT22;9118;48.122;11.546;2023-03-01T08:51:50;4.20;99.90
17986;DHT22;9118;48.122;11.546;2023-03-01T08:54:19;4.40;99.90
17986;DHT22;9118;48.122;11.546;2023-03-01T08:56:47;3.80;99.90
17986;DHT22;9118;48.122;11.546;2023-03-01T08:59:16;4.20;99.90
17986;DHT22;9118;48.122;11.546;2023-03-01T09:01:45;4.10;99.90
17986;DHT22;9118;48.122;11.546;2023-03-01T09:04:12;4.20;99.90
17986;DHT22;9118;48.122;11.546;2023-03-01T09:06:39;4.70;99.90
17986;DHT22;9118;48.122;11.546;2023-03-01T09:09:13;4.60;99.90
17986;DHT22;9118;48.122;11.546;2023-03-01T09:11:41;4.20;99.90
17986;DHT22;9118;48.122;11.546;2023-03-01T09:14:08;4.20;99.90
17986;DHT22;9118;48.122;11.546;2023-03-01T09:16:35;4.70;99.90
17986;DHT22;9118;48.122;11.546;2023-03-01T09:19:03;4.30;99.90
17986;DHT22;9118;48.122;11.546;2023-03-01T09:21:31;4.30;99.90
17986;DHT22;9118;48.122;11.546;2023-03-01T09:23:58;4.20;99.90
17986;DHT22;9118;48.122;11.546;2023-03-01T09:26:27;4.60;99.90
17986;DHT22;9118;48.122;11.546;2023-03-01T09:28:56;4.70;99.90
17986;DHT22;9118;48.122;11.546;2023-03-01T09:31:24;4.70;99.90
17986;DHT22;9118;48.122;11.546;2023-03-01T09:33:52;4.80;99.90
17986;DHT22;9118;48.122;11.546;2023-03-01T09:36:23;5.50;99.90
17986;DHT22;9118;48.122;11.546;2023-03-01T09:38:52;5.50;99.90
17986;DHT22;9118;48.122;11.546;2023-03-01T09:41:58;4.90;99.90
17986;DHT22;9118;48.122;11.546;2023-03-01T09:44:32;5.00;99.90
17986;DHT22;9118;48.122;11.546;2023-03-01T09:47:02;5.20;99.90
17986;DHT22;9118;48.122;11.546;2023-03-01T09:49:31;5.10;99.90
17986;DHT22;9118;48.122;11.546;2023-03-01T09:52:06;5.20;99.90
17986;DHT22;9118;48.122;11.546;2023-03-01T09:54:39;5.20;99.90
17986;DHT22;9118;48.122;11.546;2023-03-01T09:57:17;5.30;99.90
17986;DHT22;9118;48.122;11.546;2023-03-01T10:00:07;5.60;99.90
17986;DHT22;9118;48.122;11.546;2023-03-01T10:02:42;5.50;99.90
17986;DHT22;9118;48.122;11.546;2023-03-01T10:05:27;5.70;99.90
17986;DHT22;9118;48.122;11.546;2023-03-01T10:08:02;5.50;99.90
17986;DHT22;9118;48.122;11.546;2023-03-01T10:10:34;5.50;99.90
17986;DHT22;9118;48.122;11.546;2023-03-01T10:13:08;5.60;99.90
17986;DHT22;9118;48.122;11.546;2023-03-01T10:15:42;6.50;99.90
17986;DHT22;9118;48.122;11.546;2023-03-01T10:18:13;6.60;99.90
17986;DHT22;9118;48.122;11.546;2023-03-01T10:20:48;5.80;99.90
17986;DHT22;9118;48.122;11.546;2023-03-01T10:23:18;7.00;99.90
17986;DHT22;9118;48.122;11.546;2023-03-01T10:25:56;5.80;99.90
17986;DHT22;9118;48.122;11.546;2023-03-01T10:28:33;5.70;99.90
17986;DHT22;9118;48.122;11.546;2023-03-01T10:31:03;4.70;99.90
17986;DHT22;9118;48.122;11.546;2023-03-01T10:33:32;6.40;99.90
17986;DHT22;9118;48.122;11.546;2023-03-01T10:36:01;6.10;99.90
17986;DHT22;9118;48.122;11.546;2023-03-01T10:38:30;6.10;99.90
17986;DHT22;9118;48.122;11.546;2023-03-01T10:40:59;6.70;99.90
17986;DHT22;9118;48.122;11.546;2023-03-01T10:43:44;6.50;99.90
17986;DHT22;9118;48.122;11.546;2023-03-01T10:46:23;6.60;99.90
17986;DHT22;9118;48.122;11.546;2023-03-01T10:49:07;6.60;99.90
17986;DHT22;9118;48.122;11.546;2023-03-01T10:51:34;6.60;99.90
17986;DHT22;9118;48.122;11.546;2023-03-01T10:54:02;5.80;99.90
17986;DHT22;9118;48.122;11.546;2023-03-01T10:56:46;6.70;99.90
17986;DHT22;9118;48.122;11.546;2023-03-01T10:59:25;6.80;99.90
17986;DHT22;9118;48.122;11.546;2023-03-01T11:02:14;6.70;99.90
17986;DHT22;9118;48.122;11.546;2023-03-01T11:04:57;6.60;99.90
17986;DHT22;9118;48.122;11.546;2023-03-01T11:07:24;7.10;99.90
17986;DHT22;9118;48.122;11.546;2023-03-01T11:09:51;6.00;99.90
17986;DHT22;9118;48.122;11.546;2023-03-01T11:12:24;5.90;99.90
17986;DHT22;9118;48.122;11.546;2023-03-01T11:15:01;6.20;99.90
17986;DHT22;9118;48.122;11.546;2023-03-01T11:17:31;6.20;99.90
17986;DHT22;9118;48.122;11.546;2023-03-01T11:20:15;6.30;99.90
17986;DHT22;9118;48.122;11.546;2023-03-01T11:22:47;7.30;99.90
17986;DHT22;9118;48.122;11.546;2023-03-01T11:25:21;5.90;99.90
17986;DHT22;9118;48.122;11.546;2023-03-01T11:27:52;6.30;99.90
17986;DHT22;9118;48.122;11.546;2023-03-01T11:30:25;5.80;99.90
17986;DHT22;9118;48.122;11.546;2023-03-01T11:33:13;6.10;99.90
17986;DHT22;9118;48.122;11.546;2023-03-01T11:35:58;5.90;99.90
17986;DHT22;9118;48.122;11.546;2023-03-01T11:38:28;5.90;99.90
17986;DHT22;9118;48.122;11.546;2023-03-01T11:41:01;6.00;99.90
17986;DHT22;9118;48.122;11.546;2023-03-01T11:43:38;6.00;99.90
17986;DHT22;9118;48.122;11.546;2023-03-01T11:46:34;6.10;99.90
17986;DHT22;9118;48.122;11.546;2023-03-01T11:49:29;6.40;99.90
17986;DHT22;9118;48.122;11.546;2023-03-01T11:52:16;6.40;99.90
17986;DHT22;9118;48.122;11.546;2023-03-01T11:54:56;6.50;99.90
17986;DHT22;9118;48.122;11.546;2023-03-01T11:57:38;6.60;99.90
17986;DHT22;9118;48.122;11.546;2023-03-01T12:00:36;6.60;99.90
17986;DHT22;9118;48.122;11.546;2023-03-01T12:03:44;6.30;99.90
17986;DHT22;9118;48.122;11.546;2023-03-01T12:06:36;6.40;99.90
17986;DHT22;9118;48.122;11.546;2023-03-01T12:09:17;6.40;99.90
17986;DHT22;9118;48.122;11.546;2023-03-01T12:12:00;7.90;99.90
17986;DHT22;9118;48.122;11.546;2023-03-01T12:14:52;6.80;99.90
17986;DHT22;9118;48.122;11.546;2023-03-01T12:17:48;6.70;99.90
17986;DHT22;9118;48.122;11.546;2023-03-01T12:20:30;6.80;99.90
17986;DHT22;9118;48.122;11.546;2023-03-01T12:23:23;6.70;99.90
17986;DHT22;9118;48.122;11.546;2023-03-01T12:26:00;7.00;99.90
17986;DHT22;9118;48.122;11.546;2023-03-01T12:28:50;6.60;99.90
17986;DHT22;9118;48.122;11.546;2023-03-01T12:31:43;6.70;99.90
17986;DHT22;9118;48.122;11.546;2023-03-01T12:34:27;6.70;99.90
17986;DHT22;9118;48.122;11.546;2023-03-01T12:37:23;6.50;99.90
17986;DHT22;9118;48.122;11.546;2023-03-01T12:40:09;6.80;99.90
17986;DHT22;9118;48.122;11.546;2023-03-01T12:42:48;6.80;99.90
17986;DHT22;9118;48.122;11.546;2023-03-01T12:45:44;7.00;99.90
17986;DHT22;9118;48.122;11.546;2023-03-01T12:48:24;6.90;99.90
17986;DHT22;9118;48.122;11.546;2023-03-01T12:50:59;7.10;99.90
17986;DHT22;9118;48.122;11.546;2023-03-01T12:53:31;7.10;99.90
17986;DHT22;9118;48.122;11.546;2023-03-01T12:56:01;6.80;99.90
17986;DHT22;9118;48.122;11.546;2023-03-01T12:58:33;7.20;99.90
17986;DHT22;9118;48.122;11.546;2023-03-01T13:01:15;7.20;99.90
17986;DHT22;9118;48.122;11.546;2023-03-01T13:04:07;7.40;99.90
17986;DHT22;9118;48.122;11.546;2023-03-01T13:06:43;7.30;99.90
17986;DHT22;9118;48.122;11.546;2023-03-01T13:09:19;7.20;99.90
17986;DHT22;9118;48.122;11.546;2023-03-01T13:11:48;7.40;99.90
17986;DHT22;9118;48.122;11.546;2023-03-01T13:14:35;7.50;99.90
17986;DHT22;9118;48.122;11.546;2023-03-01T13:17:02;7.40;99.90
17986;DHT22;9118;48.122;11.546;2023-03-01T13:19:29;7.40;99.90
17986;DHT22;9118;48.122;11.546;2023-03-01T13:21:58;7.80;99.90
17986;DHT22;9118;48.122;11.546;2023-03-01T13:24:35;7.20;99.90
17986;DHT22;9118;48.122;11.546;2023-03-01T13:27:18;7.40;99.90
17986;DHT22;9118;48.122;11.546;2023-03-01T13:29:49;7.40;99.90
17986;DHT22;9118;48.122;11.546;2023-03-01T13:32:20;7.50;99.90
17986;DHT22;9118;48.122;11.546;2023-03-01T13:34:49;7.90;99.90
17986;DHT22;9118;48.122;11.546;2023-03-01T13:37:28;7.80;99.90
17986;DHT22;9118;48.122;11.546;2023-03-01T13:39:59;7.40;99.90
17986;DHT22;9118;48.122;11.546;2023-03-01T13:42:39;7.80;99.90
17986;DHT22;9118;48.122;11.546;2023-03-01T13:45:26;7.50;99.90
17986;DHT22;9118;48.122;11.546;2023-03-01T13:48:03;7.40;99.90
17986;DHT22;9118;48.122;11.546;2023-03-01T13:50:36;7.50;99.90
17986;DHT22;9118;48.122;11.546;2023-03-01T13:53:06;7.40;99.90
17986;DHT22;9118;48.122;11.546;2023-03-01T13:55:41;7.80;99.90
17986;DHT22;9118;48.122;11.546;2023-03-01T13:58:19;7.60;99.90
17986;DHT22;9118;48.122;11.546;2023-03-01T14:00:47;7.70;99.90
17986;DHT22;9118;48.122;11.546;2023-03-01T14:03:16;8.30;99.90
17986;DHT22;9118;48.122;11.546;2023-03-01T14:05:58;7.40;99.90
17986;DHT22;9118;48.122;11.546;2023-03-01T14:08:26;6.90;99.90
17986;DHT22;9118;48.122;11.546;2023-03-01T14:13:55;7.60;99.90
17986;DHT22;9118;48.122;11.546;2023-03-01T14:16:33;7.50;99.90
17986;DHT22;9118;48.122;11.546;2023-03-01T14:19:13;7.60;99.90
17986;DHT22;9118;48.122;11.546;2023-03-01T14:21:42;7.30;99.90
17986;DHT22;9118;48.122;11.546;2023-03-01T14:24:17;7.60;99.90
17986;DHT22;9118;48.122;11.546;2023-03-01T14:26:46;7.50;99.90
17986;DHT22;9118;48.122;11.546;2023-03-01T14:29:29;8.00;99.90
17986;DHT22;9118;48.122;11.546;2023-03-01T14:32:09;7.60;99.90
17986;DHT22;9118;48.122;11.546;2023-03-01T14:34:43;7.70;99.90
17986;DHT22;9118;48.122;11.546;2023-03-01T14:37:17;7.40;99.90
17986;DHT22;9118;48.122;11.546;2023-03-01T14:39:45;8.00;99.90
17986;DHT22;9118;48.122;11.546;2023-03-01T14:42:13;7.60;99.90
17986;DHT22;9118;48.122;11.546;2023-03-01T14:44:42;8.10;99.90
17986;DHT22;9118;48.122;11.546;2023-03-01T14:47:12;7.50;99.90
17986;DHT22;9118;48.122;11.546;2023-03-01T14:49:41;7.70;99.90
17986;DHT22;9118;48.122;11.546;2023-03-01T14:52:18;7.30;99.90
17986;DHT22;9118;48.122;11.546;2023-03-01T14:54:48;8.20;99.90
17986;DHT22;9118;48.122;11.546;2023-03-01T14:57:19;7.70;99.90
17986;DHT22;9118;48.122;11.546;2023-03-01T14:59:47;8.00;99.90
17986;DHT22;9118;48.122;11.546;2023-03-01T15:02:18;7.70;99.90
17986;DHT22;9118;48.122;11.546;2023-03-01T15:04:48;7.60;99.90
17986;DHT22;9118;48.122;11.546;2023-03-01T15:07:16;7.60;99.90
17986;DHT22;9118;48.122;11.546;2023-03-01T15:09:43;7.60;99.90
17986;DHT22;9118;48.122;11.546;2023-03-01T15:12:38;7.80;99.90
17986;DHT22;9118;48.122;11.546;2023-03-01T15:15:33;7.80;99.90
17986;DHT22;9118;48.122;11.546;2023-03-01T15:18:01;7.70;99.90
17986;DHT22;9118;48.122;11.546;2023-03-01T15:20:29;8.50;99.90
17986;DHT22;9118;48.122;11.546;2023-03-01T15:28:00;8.20;99.90
17986;DHT22;9118;48.122;11.546;2023-03-01T15:30:30;8.40;99.90
17986;DHT22;9118;48.122;11.546;2023-03-01T15:33:25;8.30;99.90
17986;DHT22;9118;48.122;11.546;2023-03-01T15:35:54;8.80;99.90
17986;DHT22;9118;48.122;11.546;2023-03-01T15:38:31;8.50;99.90
17986;DHT22;9118;48.122;11.546;2023-03-01T15:40:59;8.40;99.90
17986;DHT22;9118;48.122;11.546;2023-03-01T15:43:45;8.20;99.90
17986;DHT22;9118;48.122;11.546;2023-03-01T15:46:20;8.10;99.90
17986;DHT22;9118;48.122;11.546;2023-03-01T15:48:51;8.60;99.90
17986;DHT22;9118;48.122;11.546;2023-03-01T15:51:27;8.10;99.90
17986;DHT22;9118;48.122;11.546;2023-03-01T15:53:55;8.60;99.90
17986;DHT22;9118;48.122;11.546;2023-03-01T15:56:23;9.10;99.90
17986;DHT22;9118;48.122;11.546;2023-03-01T15:58:51;8.80;99.90
17986;DHT22;9118;48.122;11.546;2023-03-01T16:01:18;8.70;99.90
17986;DHT22;9118;48.122;11.546;2023-03-01T16:03:46;8.80;99.90
17986;DHT22;9118;48.122;11.546;2023-03-01T16:06:13;8.80;99.90
17986;DHT22;9118;48.122;11.546;2023-03-01T16:08:40;8.90;99.90
17986;DHT22;9118;48.122;11.546;2023-03-01T16:11:14;9.00;99.90
17986;DHT22;9118;48.122;11.546;2023-03-01T16:13:42;9.10;99.90
17986;DHT22;9118;48.122;11.546;2023-03-01T16:16:12;9.10;99.90
17986;DHT22;9118;48.122;11.546;2023-03-01T16:18:42;8.40;99.90
17986;DHT22;9118;48.122;11.546;2023-03-01T16:21:16;8.60;99.90